Time;durP1;ratioP1;P1;durP2;ratioP2;P2;SDS_P1;SDS_P2;PMS_P1;PMS_P2;Temp;Humidity;BMP_temperature;BMP_pressure;BME280_temperature;BME280_humidity;BME280_pressure;Samples;Min_cycle;Max_cycle;Signal;HPM_P1;HPM_P2
2021/04/01 00:01:14;;;;;;;11.30;8.23;;;;;;;;;;5011216;28;20462;-54
2021/04/01 00:03:42;;;;;;;11.20;7.77;;;;;;;;;;5011158;28;20411;-54
2021/04/01 00:06:08;;;;;;;9.30;7.87;;;;;;;;;;5011935;28;20828;-54
2021/04/01 00:08:34;;;;;;;16.97;8.23;;;;;;;;;;5011726;28;20461;-55
2021/04/01 00:11:00;;;;;;;11.67;8.50;;;;;;;;;;5012028;28;20498;-54
2021/04/01 00:13:27;;;;;;;9.03;7.97;;;;;;;;;;5010567;28;20976;-51
2021/04/01 00:15:57;;;;;;;9.87;8.13;;;;;;;;;;5011864;28;20411;-53
2021/04/01 00:18:23;;;;;;;8.77;7.77;;;;;;;;;;5011756;28;20378;-51
2021/04/01 00:20:49;;;;;;;10.60;8.30;;;;;;;;;;5011714;28;20389;-51
2021/04/01 00:23:15;;;;;;;10.03;8.30;;;;;;;;;;5011580;28;20404;-51
2021/04/01 00:25:41;;;;;;;11.20;8.30;;;;;;;;;;5011675;28;20385;-52
2021/04/01 00:28:07;;;;;;;20.07;8.90;;;;;;;;;;5011386;28;20895;-54
2021/04/01 00:30:33;;;;;;;12.67;8.30;;;;;;;;;;5011614;28;20395;-53
2021/04/01 00:33:01;;;;;;;15.73;9.20;;;;;;;;;;5010306;28;20471;-53
2021/04/01 00:35:27;;;;;;;13.73;9.07;;;;;;;;;;5011546;28;20407;-51
2021/04/01 00:37:52;;;;;;;19.70;9.63;;;;;;;;;;5011213;28;20445;-52
2021/04/01 00:40:22;;;;;;;14.10;8.20;;;;;;;;;;5010753;28;20381;-54
2021/04/01 00:42:50;;;;;;;18.40;9.60;;;;;;;;;;5011130;28;20428;-51
2021/04/01 00:45:16;;;;;;;11.77;8.57;;;;;;;;;;5011441;28;20381;-50
2021/04/01 00:47:46;;;;;;;13.67;9.00;;;;;;;;;;5011148;28;20439;-50
2021/04/01 00:50:14;;;;;;;16.00;9.23;;;;;;;;;;5011577;28;20785;-51
2021/04/01 00:52:42;;;;;;;13.00;8.97;;;;;;;;;;5011140;28;20461;-53
2021/04/01 00:55:08;;;;;;;16.90;9.20;;;;;;;;;;5011266;28;20497;-51
2021/04/01 00:57:36;;;;;;;13.43;9.83;;;;;;;;;;5011660;28;20794;-53
2021/04/01 01:00:02;;;;;;;16.93;8.53;;;;;;;;;;5011026;28;20428;-51
2021/04/01 01:02:28;;;;;;;12.97;8.73;;;;;;;;;;5009288;28;20905;-55
2021/04/01 01:04:54;;;;;;;14.43;8.20;;;;;;;;;;5010563;28;20422;-51
2021/04/01 01:07:20;;;;;;;11.40;9.00;;;;;;;;;;5010815;28;20411;-55
2021/04/01 01:09:46;;;;;;;14.93;8.50;;;;;;;;;;5010996;28;20380;-50
2021/04/01 01:12:12;;;;;;;13.17;9.40;;;;;;;;;;5011023;28;20430;-51
2021/04/01 01:14:38;;;;;;;14.43;9.73;;;;;;;;;;5011068;28;20452;-51
2021/04/01 01:17:04;;;;;;;11.43;7.90;;;;;;;;;;5011263;28;20402;-51
2021/04/01 01:19:36;;;;;;;12.40;10.10;;;;;;;;;;5010959;28;20949;-50
2021/04/01 01:22:02;;;;;;;14.30;10.17;;;;;;;;;;5011316;28;20549;-51
2021/04/01 01:24:28;;;;;;;13.00;10.10;;;;;;;;;;5010977;28;20399;-51
2021/04/01 01:26:54;;;;;;;15.57;10.63;;;;;;;;;;5011027;28;20380;-51
2021/04/01 01:29:20;;;;;;;15.30;9.90;;;;;;;;;;5010638;28;20429;-52
2021/04/01 01:31:49;;;;;;;14.23;10.13;;;;;;;;;;5010921;28;20449;-54
2021/04/01 01:34:15;;;;;;;16.10;9.90;;;;;;;;;;5009943;28;20461;-50
2021/04/01 01:36:41;;;;;;;19.53;10.20;;;;;;;;;;5010853;28;20408;-50
2021/04/01 01:39:07;;;;;;;13.67;10.03;;;;;;;;;;5010580;28;20491;-50
2021/04/01 01:41:33;;;;;;;15.60;9.57;;;;;;;;;;5010566;28;20452;-51
2021/04/01 01:44:00;;;;;;;13.20;9.90;;;;;;;;;;5010846;28;20405;-51
2021/04/01 01:46:26;;;;;;;13.73;10.17;;;;;;;;;;5010736;28;20440;-51
2021/04/01 01:48:52;;;;;;;14.80;9.50;;;;;;;;;;5010425;28;20500;-50
2021/04/01 01:51:18;;;;;;;15.00;9.93;;;;;;;;;;5010666;28;20493;-50
2021/04/01 01:53:44;;;;;;;14.43;10.17;;;;;;;;;;5010605;28;20461;-53
2021/04/01 01:56:10;;;;;;;13.67;9.47;;;;;;;;;;5010884;28;20540;-50
2021/04/01 01:58:36;;;;;;;15.30;11.17;;;;;;;;;;5010398;28;20381;-51
2021/04/01 02:01:02;;;;;;;14.60;9.27;;;;;;;;;;5010578;28;20437;-51
2021/04/01 02:03:28;;;;;;;15.33;10.00;;;;;;;;;;5009162;28;20421;-52
2021/04/01 02:05:56;;;;;;;11.23;9.30;;;;;;;;;;5010306;28;20483;-50
2021/04/01 02:08:22;;;;;;;16.53;9.37;;;;;;;;;;5010259;28;20874;-51
2021/04/01 02:10:50;;;;;;;13.80;9.63;;;;;;;;;;5010425;28;20758;-51
2021/04/01 02:13:19;;;;;;;17.20;9.83;;;;;;;;;;5009394;28;20550;-53
2021/04/01 02:15:47;;;;;;;16.10;10.70;;;;;;;;;;5010624;28;20926;-51
2021/04/01 02:18:17;;;;;;;15.10;11.03;;;;;;;;;;5010170;28;20414;-50
2021/04/01 02:20:48;;;;;;;17.07;10.50;;;;;;;;;;5010940;28;20430;-52
2021/04/01 02:23:15;;;;;;;11.60;9.40;;;;;;;;;;5014156;28;20450;-51
2021/04/01 02:25:43;;;;;;;13.13;9.67;;;;;;;;;;5013891;28;20410;-52
2021/04/01 02:28:09;;;;;;;17.37;10.87;;;;;;;;;;5013524;28;20414;-52
2021/04/01 02:30:36;;;;;;;17.80;9.30;;;;;;;;;;5013841;28;20915;-51
2021/04/01 02:33:02;;;;;;;13.50;9.33;;;;;;;;;;5013522;28;20828;-50
2021/04/01 02:35:28;;;;;;;14.07;9.53;;;;;;;;;;5013814;28;20413;-50
2021/04/01 02:37:54;;;;;;;17.57;10.57;;;;;;;;;;5013441;28;20402;-51
2021/04/01 02:40:21;;;;;;;14.80;10.33;;;;;;;;;;5012543;28;20513;-51
2021/04/01 02:42:47;;;;;;;14.30;10.77;;;;;;;;;;5013401;28;20455;-53
2021/04/01 02:45:13;;;;;;;16.90;12.03;;;;;;;;;;5013594;28;20975;-52
2021/04/01 02:47:40;;;;;;;16.57;11.20;;;;;;;;;;5013155;28;20414;-53
2021/04/01 02:50:06;;;;;;;18.53;10.33;;;;;;;;;;5013396;28;20767;-51
2021/04/01 02:52:32;;;;;;;16.93;9.80;;;;;;;;;;5013249;28;20486;-50
2021/04/01 02:54:58;;;;;;;16.30;11.87;;;;;;;;;;5013534;28;20401;-51
2021/04/01 02:57:24;;;;;;;22.77;12.70;;;;;;;;;;5013289;28;20409;-50
2021/04/01 02:59:50;;;;;;;17.10;12.40;;;;;;;;;;5013318;28;20402;-51
2021/04/01 03:02:18;;;;;;;19.20;13.10;;;;;;;;;;5013150;28;20425;-50
2021/04/01 03:04:44;;;;;;;20.13;11.93;;;;;;;;;;5013284;28;20922;-55
2021/04/01 03:07:12;;;;;;;23.40;13.87;;;;;;;;;;5012098;28;20826;-51
2021/04/01 03:09:38;;;;;;;18.10;12.50;;;;;;;;;;5012989;28;20548;-51
2021/04/01 03:12:04;;;;;;;17.90;12.33;;;;;;;;;;5013101;28;20546;-51
2021/04/01 03:14:30;;;;;;;19.90;11.73;;;;;;;;;;5013293;28;20406;-53
2021/04/01 03:16:56;;;;;;;19.57;11.90;;;;;;;;;;5013175;28;20409;-55
2021/04/01 03:19:24;;;;;;;14.50;11.40;;;;;;;;;;5012728;28;20411;-50
2021/04/01 03:21:51;;;;;;;15.40;11.93;;;;;;;;;;5013046;28;20508;-50
2021/04/01 03:24:17;;;;;;;19.50;12.67;;;;;;;;;;5012820;28;20414;-51
2021/04/01 03:26:43;;;;;;;16.33;10.97;;;;;;;;;;5012901;28;20425;-51
2021/04/01 03:29:09;;;;;;;19.60;12.10;;;;;;;;;;5012445;28;20405;-52
2021/04/01 03:31:36;;;;;;;14.60;11.67;;;;;;;;;;5011698;28;20436;-52
2021/04/01 03:34:03;;;;;;;18.10;11.77;;;;;;;;;;5012413;28;20457;-52
2021/04/01 03:36:29;;;;;;;18.60;12.83;;;;;;;;;;5011615;28;20944;-52
2021/04/01 03:38:55;;;;;;;22.30;13.07;;;;;;;;;;5012492;28;20486;-52
2021/04/01 03:41:21;;;;;;;18.27;12.33;;;;;;;;;;5012246;28;20522;-52
2021/04/01 03:43:47;;;;;;;22.43;12.40;;;;;;;;;;5012516;28;20525;-51
2021/04/01 03:46:14;;;;;;;20.83;12.37;;;;;;;;;;5012298;28;20414;-52
2021/04/01 03:48:41;;;;;;;24.60;12.77;;;;;;;;;;5012217;28;20416;-51
2021/04/01 03:51:07;;;;;;;16.57;12.10;;;;;;;;;;5012169;28;20905;-51
2021/04/01 03:53:33;;;;;;;20.83;11.90;;;;;;;;;;5012197;28;20457;-51
2021/04/01 03:56:00;;;;;;;20.40;14.07;;;;;;;;;;5012297;28;20988;-51
2021/04/01 03:58:44;;;;;;;21.00;14.00;;;;;;;;;;5011985;28;20397;-50
2021/04/01 04:14:09;;;;;;;32.57;16.67;;;;;;;;;;5011994;28;20458;-51
2021/04/01 04:16:35;;;;;;;23.20;15.47;;;;;;;;;;5011835;28;20438;-52
2021/04/01 04:19:01;;;;;;;23.57;14.90;;;;;;;;;;5011642;28;20489;-52
2021/04/01 04:21:28;;;;;;;23.60;14.90;;;;;;;;;;5011705;28;20576;-50
2021/04/01 04:23:54;;;;;;;22.67;15.33;;;;;;;;;;5012066;28;20430;-51
2021/04/01 04:26:23;;;;;;;22.13;15.47;;;;;;;;;;5011904;28;20463;-51
2021/04/01 04:28:49;;;;;;;18.17;14.07;;;;;;;;;;5011551;28;20399;-51
2021/04/01 04:31:15;;;;;;;24.57;14.83;;;;;;;;;;5011771;28;20466;-51
2021/04/01 04:33:41;;;;;;;22.00;13.37;;;;;;;;;;5011715;28;20453;-50
2021/04/01 04:36:08;;;;;;;28.97;14.27;;;;;;;;;;5010455;28;20934;-50
2021/04/01 04:38:35;;;;;;;27.63;14.00;;;;;;;;;;5011305;28;20401;-51
2021/04/01 04:41:01;;;;;;;23.50;13.93;;;;;;;;;;5011419;28;20406;-51
2021/04/01 04:43:29;;;;;;;20.87;13.43;;;;;;;;;;5011202;28;20920;-50
2021/04/01 04:45:55;;;;;;;21.20;15.33;;;;;;;;;;5011637;28;20417;-52
2021/04/01 04:48:21;;;;;;;21.57;13.90;;;;;;;;;;5011230;28;20453;-51
2021/04/01 04:50:48;;;;;;;24.60;14.57;;;;;;;;;;5011384;28;20411;-51
2021/04/01 04:53:15;;;;;;;39.53;17.87;;;;;;;;;;5011257;28;20461;-51
2021/04/01 04:55:46;;;;;;;30.17;18.30;;;;;;;;;;5011392;28;20406;-51
2021/04/01 05:04:38;;;;;;;32.27;18.20;;;;;;;;;;5011333;28;20462;-50
2021/04/01 05:06:09;;;;;;;37.67;18.87;;;;;;;;;;5010199;28;20437;-51
2021/04/01 05:08:35;;;;;;;30.67;18.90;;;;;;;;;;5010588;28;20912;-53
2021/04/01 05:11:01;;;;;;;28.23;17.87;;;;;;;;;;5011092;28;20442;-52
2021/04/01 05:13:27;;;;;;;29.17;17.53;;;;;;;;;;5010882;28;20504;-52
2021/04/01 05:15:53;;;;;;;30.03;18.80;;;;;;;;;;5011066;28;20415;-52
2021/04/01 05:18:27;;;;;;;29.47;18.47;;;;;;;;;;5010909;28;20413;-51
2021/04/01 05:20:54;;;;;;;40.50;17.70;;;;;;;;;;5011007;28;20401;-53
2021/04/01 05:23:36;;;;;;;26.60;16.80;;;;;;;;;;5010953;28;20459;-51
2021/04/01 05:28:41;;;;;;;22.73;15.33;;;;;;;;;;5010664;28;20424;-51
2021/04/01 05:31:09;;;;;;;27.47;16.57;;;;;;;;;;5010882;28;20916;-50
2021/04/01 05:33:37;;;;;;;27.23;17.70;;;;;;;;;;5010872;28;20461;-51
2021/04/01 05:36:08;;;;;;;33.77;18.37;;;;;;;;;;5010857;28;20399;-50
2021/04/01 05:38:35;;;;;;;33.67;18.60;;;;;;;;;;5009584;28;20435;-51
2021/04/01 05:41:01;;;;;;;33.63;19.67;;;;;;;;;;5010876;28;20392;-52
2021/04/01 05:43:29;;;;;;;32.63;21.30;;;;;;;;;;5010782;28;20375;-51
2021/04/01 05:46:17;;;;;;;35.77;20.20;;;;;;;;;;5010727;28;20409;-51
2021/04/01 05:48:58;;;;;;;38.97;20.90;;;;;;;;;;5010594;28;20408;-50
2021/04/01 06:04:34;;;;;;;30.07;19.53;;;;;;;;;;5013994;28;20418;-51
2021/04/01 06:07:04;;;;;;;40.00;20.83;;;;;;;;;;5013022;28;20426;-52
2021/04/01 06:09:33;;;;;;;33.70;20.33;;;;;;;;;;5013475;28;20422;-51
2021/04/01 06:11:59;;;;;;;33.67;22.40;;;;;;;;;;5013333;28;20418;-50
2021/04/01 06:14:35;;;;;;;37.20;19.23;;;;;;;;;;5013667;28;20465;-51
2021/04/01 06:17:05;;;;;;;31.23;20.10;;;;;;;;;;5013983;28;20405;-51
2021/04/01 06:19:36;;;;;;;40.80;21.07;;;;;;;;;;5013970;28;20767;-51
2021/04/01 06:22:06;;;;;;;34.97;20.57;;;;;;;;;;5013895;28;20557;-52
2021/04/01 06:24:34;;;;;;;37.00;20.17;;;;;;;;;;5013962;28;20403;-50
2021/04/01 06:29:37;;;;;;;38.07;20.90;;;;;;;;;;5014048;28;20411;-50
2021/04/01 06:32:03;;;;;;;38.50;21.70;;;;;;;;;;5013887;28;20819;-54
2021/04/01 06:34:35;;;;;;;40.73;23.73;;;;;;;;;;5013937;28;20461;-51
2021/04/01 06:37:02;;;;;;;41.00;21.87;;;;;;;;;;5012630;28;20512;-51
2021/04/01 06:39:29;;;;;;;37.93;21.30;;;;;;;;;;5013600;28;20904;-50
2021/04/01 06:42:02;;;;;;;47.83;23.70;;;;;;;;;;5013634;28;20551;-51
2021/04/01 06:44:31;;;;;;;44.17;24.37;;;;;;;;;;5013818;28;20417;-50
2021/04/01 06:47:08;;;;;;;56.60;23.80;;;;;;;;;;5013619;28;20618;-50
2021/04/01 06:49:58;;;;;;;45.23;24.80;;;;;;;;;;5013292;28;20403;-51
2021/04/01 06:52:32;;;;;;;42.63;22.23;;;;;;;;;;5013391;28;20478;-51
2021/04/01 06:55:09;;;;;;;46.63;23.67;;;;;;;;;;5013547;28;20458;-51
2021/04/01 06:58:28;;;;;;;47.70;24.23;;;;;;;;;;5013232;28;20444;-51
2021/04/01 07:00:58;;;;;;;43.50;24.40;;;;;;;;;;5015532;28;20389;-53
2021/04/01 07:03:27;;;;;;;38.30;23.80;;;;;;;;;;5016792;28;20472;-52
2021/04/01 07:05:58;;;;;;;46.90;23.87;;;;;;;;;;5014737;28;20397;-53
2021/04/01 07:11:33;;;;;;;46.00;25.73;;;;;;;;;;5015897;28;20420;-53
2021/04/01 07:14:02;;;;;;;43.07;24.23;;;;;;;;;;5016105;28;21036;-53
2021/04/01 07:47:27;;;;;;;39.90;25.60;;;;;;;;;;4992737;28;20439;-54
2021/04/01 07:50:21;;;;;;;40.20;23.20;;;;;;;;;;4990140;28;21166;-51
2021/04/01 07:52:50;;;;;;;50.23;29.27;;;;;;;;;;4992729;28;20462;-54
2021/04/01 08:06:08;;;;;;;52.83;29.23;;;;;;;;;;5012331;28;20406;-54
2021/04/01 08:08:37;;;;;;;44.77;27.30;;;;;;;;;;5010853;28;20426;-51
2021/04/01 08:11:04;;;;;;;46.13;29.40;;;;;;;;;;5011873;28;20399;-56
2021/04/01 08:13:39;;;;;;;52.87;28.10;;;;;;;;;;5011952;28;20454;-52
2021/04/01 08:16:10;;;;;;;44.00;28.67;;;;;;;;;;5011104;28;20445;-54
2021/04/01 08:18:40;;;;;;;40.67;27.17;;;;;;;;;;5011299;28;20423;-52
2021/04/01 08:21:08;;;;;;;52.97;29.07;;;;;;;;;;5011721;28;20395;-52
2021/04/01 08:23:36;;;;;;;52.20;32.03;;;;;;;;;;5010854;28;21004;-53
2021/04/01 08:26:18;;;;;;;51.43;29.17;;;;;;;;;;5011680;28;20418;-52
2021/04/01 08:34:14;;;;;;;61.50;31.87;;;;;;;;;;5011926;28;20509;-51
2021/04/01 08:36:44;;;;;;;70.03;35.63;;;;;;;;;;5011696;28;20798;-52
2021/04/01 08:39:12;;;;;;;70.50;35.37;;;;;;;;;;5011668;28;20399;-52
2021/04/01 08:41:57;;;;;;;69.10;35.17;;;;;;;;;;5011509;28;20450;-57
2021/04/01 08:44:22;;;;;;;63.07;35.63;;;;;;;;;;5010569;28;20430;-52
2021/04/01 08:47:07;;;;;;;61.30;32.93;;;;;;;;;;5011374;28;20974;-53
2021/04/01 08:49:42;;;;;;;64.97;36.30;;;;;;;;;;5011220;28;20397;-51
2021/04/01 08:52:31;;;;;;;67.17;36.37;;;;;;;;;;5011227;28;20442;-52
2021/04/01 08:54:59;;;;;;;70.00;37.87;;;;;;;;;;5010256;28;20412;-55
2021/04/01 08:57:49;;;;;;;64.93;35.50;;;;;;;;;;5010543;28;20400;-54
2021/04/01 09:00:15;;;;;;;65.13;34.07;;;;;;;;;;4983162;28;20412;-53
2021/04/01 09:02:51;;;;;;;74.43;38.23;;;;;;;;;;5011060;28;20493;-53
2021/04/01 09:05:19;;;;;;;69.27;36.30;;;;;;;;;;5011115;28;20394;-55
2021/04/01 09:07:47;;;;;;;65.03;35.20;;;;;;;;;;5010824;28;20392;-54
2021/04/01 09:10:28;;;;;;;64.47;35.87;;;;;;;;;;5009960;28;20422;-52
2021/04/01 09:13:05;;;;;;;72.70;38.10;;;;;;;;;;5011009;28;20469;-52
2021/04/01 09:18:04;;;;;;;72.47;38.47;;;;;;;;;;5010885;28;20415;-52
2021/04/01 09:20:31;;;;;;;76.17;37.90;;;;;;;;;;5010554;28;20411;-53
2021/04/01 09:23:04;;;;;;;74.47;39.17;;;;;;;;;;5010814;28;20443;-53
2021/04/01 09:25:48;;;;;;;72.07;39.33;;;;;;;;;;5010897;28;20410;-52
2021/04/01 09:28:14;;;;;;;73.30;39.00;;;;;;;;;;5009376;28;20413;-55
2021/04/01 09:30:41;;;;;;;66.40;36.80;;;;;;;;;;5012320;28;20806;-52
2021/04/01 09:33:25;;;;;;;65.40;37.23;;;;;;;;;;5014686;28;20459;-55
2021/04/01 09:35:52;;;;;;;69.20;37.07;;;;;;;;;;5013477;28;20907;-54
2021/04/01 09:38:18;;;;;;;65.90;36.70;;;;;;;;;;5014546;28;20408;-52
2021/04/01 09:40:45;;;;;;;74.53;41.70;;;;;;;;;;5013430;28;20423;-55
2021/04/01 09:43:19;;;;;;;67.60;39.27;;;;;;;;;;5014622;28;20454;-52
2021/04/01 09:45:46;;;;;;;71.37;38.50;;;;;;;;;;5014655;28;20435;-53
2021/04/01 09:48:13;;;;;;;58.40;33.53;;;;;;;;;;5014321;28;20971;-52
2021/04/01 09:50:40;;;;;;;55.57;30.73;;;;;;;;;;5014658;28;20483;-52
2021/04/01 09:53:12;;;;;;;61.97;34.80;;;;;;;;;;5014154;28;20466;-53
2021/04/01 09:55:43;;;;;;;66.00;35.87;;;;;;;;;;5014513;28;20399;-52
2021/04/01 09:58:16;;;;;;;62.77;34.57;;;;;;;;;;5013036;28;20453;-56
2021/04/01 10:01:02;;;;;;;68.47;35.63;;;;;;;;;;5014431;28;20434;-53
2021/04/01 10:03:30;;;;;;;60.80;34.00;;;;;;;;;;5014184;28;20837;-55
2021/04/01 10:05:56;;;;;;;64.40;34.17;;;;;;;;;;5014207;28;20906;-55
2021/04/01 10:08:29;;;;;;;68.33;35.63;;;;;;;;;;5013861;28;20403;-52
2021/04/01 10:10:56;;;;;;;63.77;34.80;;;;;;;;;;5013239;28;20513;-52
2021/04/01 10:13:24;;;;;;;69.43;34.00;;;;;;;;;;5013938;28;21016;-55
2021/04/01 10:15:50;;;;;;;58.97;31.60;;;;;;;;;;5014272;28;20399;-53
2021/04/01 10:18:21;;;;;;;59.03;30.40;;;;;;;;;;5013883;28;20406;-52
2021/04/01 10:20:53;;;;;;;60.07;32.40;;;;;;;;;;5014064;28;20399;-52
2021/04/01 10:23:20;;;;;;;56.80;32.23;;;;;;;;;;5014130;28;20866;-52
2021/04/01 10:25:51;;;;;;;58.30;31.50;;;;;;;;;;5014127;28;20464;-52
2021/04/01 10:28:42;;;;;;;61.23;32.10;;;;;;;;;;5013702;28;20399;-52
2021/04/01 10:31:16;;;;;;;71.03;34.23;;;;;;;;;;5013551;28;20510;-56
2021/04/01 10:34:05;;;;;;;57.53;28.67;;;;;;;;;;5013901;28;20453;-52
2021/04/01 10:36:32;;;;;;;57.20;31.07;;;;;;;;;;5011295;28;20502;-52
2021/04/01 10:39:09;;;;;;;53.00;27.20;;;;;;;;;;5007589;28;20549;-55
2021/04/01 10:41:47;;;;;;;50.37;27.70;;;;;;;;;;5013191;28;20490;-53
2021/04/01 10:44:13;;;;;;;56.93;29.87;;;;;;;;;;5013987;28;20403;-55
2021/04/01 10:46:42;;;;;;;54.20;29.13;;;;;;;;;;5013616;28;20487;-54
2021/04/01 10:49:08;;;;;;;57.77;28.17;;;;;;;;;;5013041;28;20408;-55
2021/04/01 10:51:34;;;;;;;53.47;28.80;;;;;;;;;;5013361;28;20517;-55
2021/04/01 10:54:08;;;;;;;51.33;25.80;;;;;;;;;;5012538;28;20455;-54
2021/04/01 10:56:44;;;;;;;52.93;29.00;;;;;;;;;;5013015;28;20407;-55
2021/04/01 10:59:10;;;;;;;52.43;28.00;;;;;;;;;;5013098;28;20449;-55
2021/04/01 11:01:38;;;;;;;57.10;29.57;;;;;;;;;;5013149;28;20806;-55
2021/04/01 11:04:05;;;;;;;59.57;29.33;;;;;;;;;;5013224;28;20414;-56
2021/04/01 11:06:33;;;;;;;58.37;30.43;;;;;;;;;;5013169;28;20412;-55
2021/04/01 11:09:00;;;;;;;63.83;31.87;;;;;;;;;;5012744;28;20414;-54
2021/04/01 11:14:23;;;;;;;54.83;29.50;;;;;;;;;;5013039;28;21033;-55
2021/04/01 11:16:52;;;;;;;54.53;28.97;;;;;;;;;;5013002;28;20404;-54
2021/04/01 11:19:18;;;;;;;54.30;29.50;;;;;;;;;;5012468;28;20903;-55
2021/04/01 11:21:45;;;;;;;56.20;31.43;;;;;;;;;;5012752;28;20455;-54
2021/04/01 11:24:11;;;;;;;62.47;30.63;;;;;;;;;;5012887;28;20399;-55
2021/04/01 11:26:38;;;;;;;57.10;29.23;;;;;;;;;;5012675;28;20465;-55
2021/04/01 11:29:11;;;;;;;56.50;29.93;;;;;;;;;;5012556;28;20896;-56
2021/04/01 11:31:38;;;;;;;57.77;29.10;;;;;;;;;;5012623;28;20420;-55
2021/04/01 11:34:04;;;;;;;59.17;30.17;;;;;;;;;;5012439;28;20450;-55
2021/04/01 11:36:36;;;;;;;61.53;30.23;;;;;;;;;;5012638;28;20399;-54
2021/04/01 11:39:11;;;;;;;65.07;33.43;;;;;;;;;;5012470;28;20407;-54
2021/04/01 11:41:43;;;;;;;55.30;32.30;;;;;;;;;;5011611;28;21164;-54
2021/04/01 11:44:11;;;;;;;53.47;30.73;;;;;;;;;;5012403;28;20407;-55
2021/04/01 11:46:37;;;;;;;61.80;32.10;;;;;;;;;;5012472;28;20411;-55
2021/04/01 11:49:04;;;;;;;54.87;31.37;;;;;;;;;;5012130;28;20405;-54
2021/04/01 11:51:31;;;;;;;52.20;30.07;;;;;;;;;;5012340;28;20493;-55
2021/04/01 11:53:58;;;;;;;59.50;32.73;;;;;;;;;;5011316;28;20462;-55
2021/04/01 11:56:33;;;;;;;55.87;33.17;;;;;;;;;;5012334;28;20502;-54
2021/04/01 11:59:08;;;;;;;61.97;31.87;;;;;;;;;;5011872;28;20399;-55
2021/04/01 12:01:36;;;;;;;51.13;31.53;;;;;;;;;;5011963;28;20935;-55
2021/04/01 12:06:30;;;;;;;53.03;32.37;;;;;;;;;;5012147;28;20478;-54
2021/04/01 12:08:57;;;;;;;49.63;31.67;;;;;;;;;;5012086;28;20443;-55
2021/04/01 12:11:23;;;;;;;48.87;30.67;;;;;;;;;;5010862;28;20435;-55
2021/04/01 12:13:49;;;;;;;53.53;32.80;;;;;;;;;;5011921;28;20450;-55
2021/04/01 12:16:19;;;;;;;51.57;31.57;;;;;;;;;;5011901;28;20426;-54
2021/04/01 12:18:46;;;;;;;50.13;31.63;;;;;;;;;;5011618;28;20449;-54
2021/04/01 12:21:12;;;;;;;49.93;33.23;;;;;;;;;;5011829;28;20469;-54
2021/04/01 12:23:46;;;;;;;53.80;30.73;;;;;;;;;;5012009;28;20439;-55
2021/04/01 12:26:12;;;;;;;50.77;33.67;;;;;;;;;;5011680;28;20414;-54
2021/04/01 12:28:38;;;;;;;46.87;32.43;;;;;;;;;;5011633;28;20457;-56
2021/04/01 12:31:11;;;;;;;47.33;32.70;;;;;;;;;;5011636;28;20399;-55
2021/04/01 12:33:47;;;;;;;56.53;40.27;;;;;;;;;;5011784;28;20454;-54
2021/04/01 12:36:12;;;;;;;59.20;43.40;;;;;;;;;;5011634;28;20410;-55
2021/04/01 12:38:39;;;;;;;61.07;43.47;;;;;;;;;;5011409;28;20415;-55
2021/04/01 12:41:11;;;;;;;64.57;44.60;;;;;;;;;;5007383;28;20435;-55
2021/04/01 12:43:40;;;;;;;65.60;44.87;;;;;;;;;;5011692;28;20415;-55
2021/04/01 12:46:07;;;;;;;64.70;44.10;;;;;;;;;;5011516;28;20491;-54
2021/04/01 12:48:43;;;;;;;64.87;43.70;;;;;;;;;;5011408;28;20438;-55
2021/04/01 12:51:10;;;;;;;65.30;45.67;;;;;;;;;;5010532;28;20407;-54
2021/04/01 12:53:36;;;;;;;66.73;45.10;;;;;;;;;;5009652;28;20455;-54
2021/04/01 13:03:56;;;;;;;72.43;47.07;;;;;;;;;;5012811;28;20396;-53
2021/04/01 13:07:27;;;;;;;57.17;39.70;;;;;;;;;;5013069;28;20411;-55
2021/04/01 13:11:55;;;;;;;46.03;32.77;;;;;;;;;;5011691;28;20466;-54
2021/04/01 13:14:22;;;;;;;48.33;33.30;;;;;;;;;;5011360;28;20470;-54
2021/04/01 13:16:48;;;;;;;49.03;33.10;;;;;;;;;;5013367;28;20568;-54
2021/04/01 13:19:14;;;;;;;46.90;30.70;;;;;;;;;;5013440;28;20414;-54
2021/04/01 13:26:44;;;;;;;41.93;28.03;;;;;;;;;;5015556;28;20514;-56
2021/04/01 13:29:11;;;;;;;43.23;26.57;;;;;;;;;;5015146;28;20411;-55
2021/04/01 13:34:23;;;;;;;42.70;24.90;;;;;;;;;;5012032;28;20505;-54
2021/04/01 13:37:01;;;;;;;32.23;22.67;;;;;;;;;;5011300;28;20891;-54
2021/04/01 13:39:33;;;;;;;31.50;22.50;;;;;;;;;;5011383;28;20415;-54
2021/04/01 13:42:07;;;;;;;28.80;19.00;;;;;;;;;;5010327;28;20502;-55
2021/04/01 13:44:46;;;;;;;33.30;22.27;;;;;;;;;;5004623;28;20412;-55
2021/04/01 13:47:12;;;;;;;22.53;15.47;;;;;;;;;;5001878;28;20411;-54
2021/04/01 13:49:40;;;;;;;26.63;16.33;;;;;;;;;;5006073;28;20445;-54
2021/04/01 13:52:11;;;;;;;21.93;15.37;;;;;;;;;;5006541;28;20450;-54
2021/04/01 14:01:07;;;;;;;22.00;14.97;;;;;;;;;;4984946;28;20441;-54
2021/04/01 14:11:13;;;;;;;20.50;14.70;;;;;;;;;;5014275;28;20406;-54
2021/04/01 14:13:39;;;;;;;21.10;14.07;;;;;;;;;;5011601;28;20454;-55
2021/04/01 14:16:05;;;;;;;22.20;12.27;;;;;;;;;;5012948;28;20914;-54
2021/04/01 14:18:32;;;;;;;12.60;10.60;;;;;;;;;;5016666;28;20411;-54
2021/04/01 14:21:00;;;;;;;14.80;10.80;;;;;;;;;;5014205;28;20750;-54
2021/04/01 14:23:28;;;;;;;10.93;9.20;;;;;;;;;;5015072;28;20431;-53
2021/04/01 14:25:56;;;;;;;11.70;7.80;;;;;;;;;;5015910;28;20813;-54
2021/04/01 14:28:22;;;;;;;10.80;6.30;;;;;;;;;;5016096;28;20466;-54
2021/04/01 14:30:48;;;;;;;10.27;6.13;;;;;;;;;;5016596;28;20411;-54
2021/04/01 14:33:15;;;;;;;10.27;5.90;;;;;;;;;;5016963;28;20462;-54
2021/04/01 14:35:43;;;;;;;11.70;5.37;;;;;;;;;;5017380;28;20518;-54
2021/04/01 14:38:10;;;;;;;17.23;5.13;;;;;;;;;;5017162;28;20768;-53
2021/04/01 14:40:49;;;;;;;8.40;4.90;;;;;;;;;;5017651;28;20407;-55
2021/04/01 14:43:21;;;;;;;10.27;4.70;;;;;;;;;;5016697;28;20985;-53
2021/04/01 14:45:47;;;;;;;8.60;4.97;;;;;;;;;;5017216;28;20482;-54
2021/04/01 14:48:13;;;;;;;10.07;4.73;;;;;;;;;;5016761;28;20482;-53
2021/04/01 14:50:40;;;;;;;6.87;4.33;;;;;;;;;;5017159;28;20384;-54
2021/04/01 14:53:14;;;;;;;15.33;4.83;;;;;;;;;;5016782;28;20477;-54
2021/04/01 14:55:40;;;;;;;13.20;5.17;;;;;;;;;;5016516;28;20403;-55
2021/04/01 14:58:09;;;;;;;6.60;4.13;;;;;;;;;;5016582;28;20407;-53
2021/04/01 15:00:35;;;;;;;8.30;3.87;;;;;;;;;;5017381;28;20487;-54
2021/04/01 15:03:01;;;;;;;12.90;4.47;;;;;;;;;;5017087;28;20431;-53
2021/04/01 15:05:27;;;;;;;7.47;3.90;;;;;;;;;;5017168;28;20403;-54
2021/04/01 15:07:54;;;;;;;8.97;4.33;;;;;;;;;;5017165;28;20407;-54
2021/04/01 15:10:20;;;;;;;8.03;3.80;;;;;;;;;;5017020;28;20412;-53
2021/04/01 15:12:46;;;;;;;7.23;3.70;;;;;;;;;;5015910;28;20580;-54
2021/04/01 15:15:13;;;;;;;5.50;4.07;;;;;;;;;;5018418;28;20864;-53
2021/04/01 15:17:39;;;;;;;5.33;3.90;;;;;;;;;;5019090;28;20410;-53
2021/04/01 15:20:07;;;;;;;4.57;3.47;;;;;;;;;;5018948;28;20407;-53
2021/04/01 15:22:34;;;;;;;3.70;3.40;;;;;;;;;;5019372;28;20419;-53
2021/04/01 15:25:00;;;;;;;4.77;3.60;;;;;;;;;;5019192;28;20846;-53
2021/04/01 15:27:26;;;;;;;7.87;3.50;;;;;;;;;;5019147;28;20410;-52
2021/04/01 15:29:55;;;;;;;4.60;3.47;;;;;;;;;;5018929;28;20891;-53
2021/04/01 15:32:21;;;;;;;6.10;3.90;;;;;;;;;;5019392;28;20431;-52
2021/04/01 15:34:48;;;;;;;9.60;4.13;;;;;;;;;;5019654;28;20454;-52
2021/04/01 15:37:14;;;;;;;7.17;3.40;;;;;;;;;;5017746;28;20430;-52
2021/04/01 15:39:41;;;;;;;5.03;3.10;;;;;;;;;;5018262;28;20411;-53
2021/04/01 15:42:07;;;;;;;6.83;3.23;;;;;;;;;;5016944;28;20450;-52
2021/04/01 15:44:34;;;;;;;6.53;3.27;;;;;;;;;;5017734;28;20423;-52
2021/04/01 15:47:00;;;;;;;3.13;2.50;;;;;;;;;;5018183;28;20407;-52
2021/04/01 15:49:26;;;;;;;5.43;3.00;;;;;;;;;;5018209;28;21086;-52
2021/04/01 15:51:52;;;;;;;4.83;2.90;;;;;;;;;;5019072;28;21001;-51
2021/04/01 15:54:17;;;;;;;5.90;2.80;;;;;;;;;;5018457;28;20450;-54
2021/04/01 15:56:43;;;;;;;5.50;3.00;;;;;;;;;;5019569;28;20418;-53
2021/04/01 15:59:09;;;;;;;6.13;2.97;;;;;;;;;;5018638;28;20399;-52
2021/04/01 16:01:35;;;;;;;3.57;3.27;;;;;;;;;;5017766;28;20442;-52
2021/04/01 16:04:01;;;;;;;8.40;3.03;;;;;;;;;;5017409;28;20464;-53
2021/04/01 16:06:27;;;;;;;7.40;2.97;;;;;;;;;;5016049;28;20442;-52
2021/04/01 16:08:53;;;;;;;4.50;2.60;;;;;;;;;;5017167;28;20442;-53
2021/04/01 16:11:19;;;;;;;6.77;2.73;;;;;;;;;;5017406;28;20777;-52
2021/04/01 16:13:45;;;;;;;7.83;3.93;;;;;;;;;;5017480;28;20430;-52
2021/04/01 16:16:11;;;;;;;4.57;2.63;;;;;;;;;;5015773;28;20806;-52
2021/04/01 16:18:37;;;;;;;6.77;2.90;;;;;;;;;;5016742;28;20483;-53
2021/04/01 16:21:03;;;;;;;7.30;3.37;;;;;;;;;;5018092;28;20922;-52
2021/04/01 16:23:31;;;;;;;5.10;2.97;;;;;;;;;;5018051;28;20427;-53
2021/04/01 16:25:57;;;;;;;7.43;3.10;;;;;;;;;;5017905;28;20390;-52
2021/04/01 16:28:26;;;;;;;5.23;3.20;;;;;;;;;;5018640;28;20418;-53
2021/04/01 16:30:52;;;;;;;8.10;3.30;;;;;;;;;;5018370;28;20406;-52
2021/04/01 16:33:20;;;;;;;9.73;3.20;;;;;;;;;;5017745;28;20986;-53
2021/04/01 16:35:46;;;;;;;3.87;2.60;;;;;;;;;;5017304;28;20376;-52
2021/04/01 16:38:15;;;;;;;4.63;3.00;;;;;;;;;;5016552;28;20497;-54
2021/04/01 16:40:41;;;;;;;8.17;2.57;;;;;;;;;;5016320;28;20438;-55